Athensville, Illinois
Current Conditions -  °F | °C
As of 6:35 PM on Wednesday 17 Dec 2014 (Local Time) from KIJX Reporting Station
Clear Clear  
Wind Chill: 17°   Ceiling: Unl
Heat Index: 25°   Visibility: 10mi
Dew Point: 20°   Wind: 8mph
Humidity: 82%   Direction: 20°NNE
Pressure: 30.29"   Gusts: NA
Location:  39.491°N, 90.2996°W
Report Text: KIJX 180035Z AUTO 02007KT 10SM CLR M04/M06 A3029 RMK AO2 T10371064
Loading
Personal Weather Stations






























Interactive Weather Map New forecast layout! Learn more

10-Day Weather Forecast

Advertisements
Track Severe Weather on mobile